sensor_id;sensor_type;location;lat;lon;timestamp;temperature;humidity
74657;DHT22;63185;45.642;13.764;2023-04-01T00:00:20;13.30;70.10
74657;DHT22;63185;45.642;13.764;2023-04-01T00:02:46;13.30;70.20
74657;DHT22;63185;45.642;13.764;2023-04-01T00:05:12;13.30;71.00
74657;DHT22;63185;45.642;13.764;2023-04-01T00:07:39;13.20;70.80
74657;DHT22;63185;45.642;13.764;2023-04-01T00:10:07;13.30;70.20
74657;DHT22;63185;45.642;13.764;2023-04-01T00:12:33;13.30;70.80
74657;DHT22;63185;45.642;13.764;2023-04-01T00:14:59;13.20;70.90
74657;DHT22;63185;45.642;13.764;2023-04-01T00:17:25;13.20;70.90
74657;DHT22;63185;45.642;13.764;2023-04-01T00:19:51;13.30;70.30
74657;DHT22;63185;45.642;13.764;2023-04-01T00:22:17;13.20;69.30
74657;DHT22;63185;45.642;13.764;2023-04-01T00:24:42;13.30;68.80
74657;DHT22;63185;45.642;13.764;2023-04-01T00:27:09;13.20;69.20
74657;DHT22;63185;45.642;13.764;2023-04-01T00:29:35;13.20;68.50
74657;DHT22;63185;45.642;13.764;2023-04-01T00:32:01;13.10;68.30
74657;DHT22;63185;45.642;13.764;2023-04-01T00:34:27;13.20;67.60
74657;DHT22;63185;45.642;13.764;2023-04-01T00:36:52;13.10;67.40
74657;DHT22;63185;45.642;13.764;2023-04-01T00:39:21;13.10;67.00
74657;DHT22;63185;45.642;13.764;2023-04-01T00:41:47;13.10;67.20
74657;DHT22;63185;45.642;13.764;2023-04-01T00:44:24;13.20;65.60
74657;DHT22;63185;45.642;13.764;2023-04-01T00:46:51;13.20;65.80
74657;DHT22;63185;45.642;13.764;2023-04-01T00:49:20;13.10;65.10
74657;DHT22;63185;45.642;13.764;2023-04-01T00:51:49;13.10;65.30
74657;DHT22;63185;45.642;13.764;2023-04-01T00:54:16;13.10;65.50
74657;DHT22;63185;45.642;13.764;2023-04-01T00:59:27;13.10;65.20
74657;DHT22;63185;45.642;13.764;2023-04-01T01:01:54;13.10;64.80
74657;DHT22;63185;45.642;13.764;2023-04-01T01:04:23;13.10;64.80
74657;DHT22;63185;45.642;13.764;2023-04-01T01:07:16;13.10;64.60
74657;DHT22;63185;45.642;13.764;2023-04-01T01:12:45;13.10;64.40
74657;DHT22;63185;45.642;13.764;2023-04-01T01:15:22;13.10;64.50
74657;DHT22;63185;45.642;13.764;2023-04-01T01:29:29;13.10;64.40
74657;DHT22;63185;45.642;13.764;2023-04-01T01:37:30;13.10;65.00
74657;DHT22;63185;45.642;13.764;2023-04-01T01:40:00;13.10;64.00
74657;DHT22;63185;45.642;13.764;2023-04-01T01:42:28;13.10;63.50
74657;DHT22;63185;45.642;13.764;2023-04-01T01:44:57;13.20;63.80
74657;DHT22;63185;45.642;13.764;2023-04-01T01:47:25;13.20;63.00
74657;DHT22;63185;45.642;13.764;2023-04-01T01:49:53;13.20;62.80
74657;DHT22;63185;45.642;13.764;2023-04-01T01:52:22;13.30;62.40
74657;DHT22;63185;45.642;13.764;2023-04-01T01:54:53;13.20;62.60
74657;DHT22;63185;45.642;13.764;2023-04-01T01:57:23;13.30;63.00
74657;DHT22;63185;45.642;13.764;2023-04-01T01:59:50;13.20;63.10
74657;DHT22;63185;45.642;13.764;2023-04-01T02:02:17;13.20;63.90
74657;DHT22;63185;45.642;13.764;2023-04-01T02:04:44;13.10;64.10
74657;DHT22;63185;45.642;13.764;2023-04-01T02:07:19;13.10;64.90
74657;DHT22;63185;45.642;13.764;2023-04-01T02:09:47;13.10;65.50
74657;DHT22;63185;45.642;13.764;2023-04-01T02:12:15;13.00;65.70
74657;DHT22;63185;45.642;13.764;2023-04-01T02:17:26;12.90;66.00
74657;DHT22;63185;45.642;13.764;2023-04-01T02:20:01;12.80;66.80
74657;DHT22;63185;45.642;13.764;2023-04-01T02:22:33;12.70;66.80
74657;DHT22;63185;45.642;13.764;2023-04-01T02:25:07;12.70;66.80
74657;DHT22;63185;45.642;13.764;2023-04-01T02:27:33;12.60;66.40
74657;DHT22;63185;45.642;13.764;2023-04-01T02:29:59;12.60;67.00
74657;DHT22;63185;45.642;13.764;2023-04-01T02:32:27;12.60;66.00
74657;DHT22;63185;45.642;13.764;2023-04-01T02:34:53;12.60;65.70
74657;DHT22;63185;45.642;13.764;2023-04-01T02:37:19;12.60;63.70
74657;DHT22;63185;45.642;13.764;2023-04-01T02:39:45;12.70;64.10
74657;DHT22;63185;45.642;13.764;2023-04-01T02:42:11;12.80;64.40
74657;DHT22;63185;45.642;13.764;2023-04-01T02:44:38;12.70;63.90
74657;DHT22;63185;45.642;13.764;2023-04-01T02:47:04;12.70;64.10
74657;DHT22;63185;45.642;13.764;2023-04-01T02:49:29;12.70;64.50
74657;DHT22;63185;45.642;13.764;2023-04-01T02:51:55;12.70;64.50
74657;DHT22;63185;45.642;13.764;2023-04-01T02:54:21;12.70;63.80
74657;DHT22;63185;45.642;13.764;2023-04-01T02:56:46;12.70;63.80
74657;DHT22;63185;45.642;13.764;2023-04-01T02:59:12;12.70;64.30
74657;DHT22;63185;45.642;13.764;2023-04-01T03:01:38;12.70;64.70
74657;DHT22;63185;45.642;13.764;2023-04-01T03:04:04;12.70;65.50
74657;DHT22;63185;45.642;13.764;2023-04-01T03:06:30;12.60;64.90
74657;DHT22;63185;45.642;13.764;2023-04-01T03:08:56;12.70;65.20
74657;DHT22;63185;45.642;13.764;2023-04-01T03:11:22;12.70;64.60
74657;DHT22;63185;45.642;13.764;2023-04-01T03:13:48;12.70;64.10
74657;DHT22;63185;45.642;13.764;2023-04-01T03:16:14;12.60;63.80
74657;DHT22;63185;45.642;13.764;2023-04-01T03:18:40;12.60;64.00
74657;DHT22;63185;45.642;13.764;2023-04-01T03:21:17;12.60;63.50
74657;DHT22;63185;45.642;13.764;2023-04-01T03:23:43;12.60;62.90
74657;DHT22;63185;45.642;13.764;2023-04-01T03:26:09;12.60;62.20
74657;DHT22;63185;45.642;13.764;2023-04-01T03:28:35;12.70;61.80
74657;DHT22;63185;45.642;13.764;2023-04-01T03:31:00;12.80;61.90
74657;DHT22;63185;45.642;13.764;2023-04-01T03:33:26;12.80;60.60
74657;DHT22;63185;45.642;13.764;2023-04-01T03:35:52;12.80;60.70
74657;DHT22;63185;45.642;13.764;2023-04-01T03:38:18;12.90;60.20
74657;DHT22;63185;45.642;13.764;2023-04-01T03:40:44;12.90;60.70
74657;DHT22;63185;45.642;13.764;2023-04-01T03:43:10;12.90;59.60
74657;DHT22;63185;45.642;13.764;2023-04-01T03:45:43;12.90;60.90
74657;DHT22;63185;45.642;13.764;2023-04-01T03:48:08;12.80;61.80
74657;DHT22;63185;45.642;13.764;2023-04-01T03:50:34;12.80;61.50
74657;DHT22;63185;45.642;13.764;2023-04-01T03:53:00;12.70;61.00
74657;DHT22;63185;45.642;13.764;2023-04-01T03:55:26;12.70;61.10
74657;DHT22;63185;45.642;13.764;2023-04-01T03:57:52;12.80;61.20
74657;DHT22;63185;45.642;13.764;2023-04-01T04:00:18;12.90;60.70
74657;DHT22;63185;45.642;13.764;2023-04-01T04:02:44;12.90;60.80
74657;DHT22;63185;45.642;13.764;2023-04-01T04:05:10;12.90;61.80
74657;DHT22;63185;45.642;13.764;2023-04-01T04:07:36;12.90;61.20
74657;DHT22;63185;45.642;13.764;2023-04-01T04:10:02;12.90;60.60
74657;DHT22;63185;45.642;13.764;2023-04-01T04:12:28;12.80;61.30
74657;DHT22;63185;45.642;13.764;2023-04-01T04:14:53;12.80;61.80
74657;DHT22;63185;45.642;13.764;2023-04-01T04:17:19;12.80;61.80
74657;DHT22;63185;45.642;13.764;2023-04-01T04:19:45;12.80;62.70
74657;DHT22;63185;45.642;13.764;2023-04-01T04:22:11;12.70;63.20
74657;DHT22;63185;45.642;13.764;2023-04-01T04:24:37;12.70;62.90
74657;DHT22;63185;45.642;13.764;2023-04-01T04:27:03;12.60;63.50
74657;DHT22;63185;45.642;13.764;2023-04-01T04:29:29;12.60;63.50
74657;DHT22;63185;45.642;13.764;2023-04-01T04:31:55;12.60;63.50
74657;DHT22;63185;45.642;13.764;2023-04-01T04:34:22;12.60;63.20
74657;DHT22;63185;45.642;13.764;2023-04-01T04:36:48;12.60;62.50
74657;DHT22;63185;45.642;13.764;2023-04-01T04:39:14;12.60;62.10
74657;DHT22;63185;45.642;13.764;2023-04-01T04:41:40;12.60;62.00
74657;DHT22;63185;45.642;13.764;2023-04-01T04:44:06;12.60;60.90
74657;DHT22;63185;45.642;13.764;2023-04-01T04:46:31;12.60;60.60
74657;DHT22;63185;45.642;13.764;2023-04-01T04:48:57;12.70;60.40
74657;DHT22;63185;45.642;13.764;2023-04-01T04:51:23;12.70;61.50
74657;DHT22;63185;45.642;13.764;2023-04-01T04:53:49;12.70;60.90
74657;DHT22;63185;45.642;13.764;2023-04-01T04:56:19;12.70;60.60
74657;DHT22;63185;45.642;13.764;2023-04-01T04:58:45;12.70;61.30
74657;DHT22;63185;45.642;13.764;2023-04-01T05:01:13;12.80;62.30
74657;DHT22;63185;45.642;13.764;2023-04-01T05:03:40;12.80;64.90
74657;DHT22;63185;45.642;13.764;2023-04-01T05:06:06;12.80;68.50
74657;DHT22;63185;45.642;13.764;2023-04-01T05:08:33;12.80;69.00
74657;DHT22;63185;45.642;13.764;2023-04-01T05:10:59;12.80;69.90
74657;DHT22;63185;45.642;13.764;2023-04-01T05:13:26;12.70;70.40
74657;DHT22;63185;45.642;13.764;2023-04-01T05:15:51;12.70;71.00
74657;DHT22;63185;45.642;13.764;2023-04-01T05:18:17;12.70;70.60
74657;DHT22;63185;45.642;13.764;2023-04-01T05:20:52;12.80;69.50
74657;DHT22;63185;45.642;13.764;2023-04-01T05:23:18;12.80;69.20
74657;DHT22;63185;45.642;13.764;2023-04-01T05:25:47;12.90;68.80
74657;DHT22;63185;45.642;13.764;2023-04-01T05:28:13;13.00;68.80
74657;DHT22;63185;45.642;13.764;2023-04-01T05:30:42;13.00;68.40
74657;DHT22;63185;45.642;13.764;2023-04-01T05:33:09;13.10;68.20
74657;DHT22;63185;45.642;13.764;2023-04-01T05:35:35;13.10;68.00
74657;DHT22;63185;45.642;13.764;2023-04-01T05:38:02;13.20;68.20
74657;DHT22;63185;45.642;13.764;2023-04-01T05:40:28;13.30;68.20
74657;DHT22;63185;45.642;13.764;2023-04-01T05:42:55;13.30;67.50
74657;DHT22;63185;45.642;13.764;2023-04-01T05:45:21;13.40;66.90
74657;DHT22;63185;45.642;13.764;2023-04-01T05:47:47;13.40;67.10
74657;DHT22;63185;45.642;13.764;2023-04-01T05:50:12;13.50;66.80
74657;DHT22;63185;45.642;13.764;2023-04-01T05:52:38;13.60;66.50
74657;DHT22;63185;45.642;13.764;2023-04-01T05:55:05;13.70;66.40
74657;DHT22;63185;45.642;13.764;2023-04-01T05:57:30;13.80;66.30
74657;DHT22;63185;45.642;13.764;2023-04-01T05:59:56;13.90;66.20
74657;DHT22;63185;45.642;13.764;2023-04-01T06:02:22;13.90;66.60
74657;DHT22;63185;45.642;13.764;2023-04-01T06:04:48;14.00;66.70
74657;DHT22;63185;45.642;13.764;2023-04-01T06:07:15;14.10;66.70
74657;DHT22;63185;45.642;13.764;2023-04-01T06:09:42;14.10;66.60
74657;DHT22;63185;45.642;13.764;2023-04-01T06:28:46;14.30;66.00
74657;DHT22;63185;45.642;13.764;2023-04-01T06:41:50;14.60;63.80
74657;DHT22;63185;45.642;13.764;2023-04-01T06:52:41;15.00;62.60
74657;DHT22;63185;45.642;13.764;2023-04-01T06:58:36;15.30;62.20
74657;DHT22;63185;45.642;13.764;2023-04-01T07:01:28;15.50;61.20
74657;DHT22;63185;45.642;13.764;2023-04-01T07:04:20;15.40;60.00
74657;DHT22;63185;45.642;13.764;2023-04-01T07:06:52;15.30;60.30
74657;DHT22;63185;45.642;13.764;2023-04-01T07:09:32;15.20;59.00
74657;DHT22;63185;45.642;13.764;2023-04-01T07:12:02;15.50;58.40
74657;DHT22;63185;45.642;13.764;2023-04-01T07:14:35;15.30;57.20
74657;DHT22;63185;45.642;13.764;2023-04-01T07:17:08;15.40;56.80
74657;DHT22;63185;45.642;13.764;2023-04-01T07:22:38;15.80;55.40
74657;DHT22;63185;45.642;13.764;2023-04-01T07:25:18;15.80;55.90
74657;DHT22;63185;45.642;13.764;2023-04-01T07:27:46;15.80;55.60
74657;DHT22;63185;45.642;13.764;2023-04-01T07:30:22;16.00;55.10
74657;DHT22;63185;45.642;13.764;2023-04-01T07:33:15;16.00;54.20
74657;DHT22;63185;45.642;13.764;2023-04-01T07:52:01;16.00;55.00
74657;DHT22;63185;45.642;13.764;2023-04-01T07:57:27;16.50;52.00
74657;DHT22;63185;45.642;13.764;2023-04-01T08:08:24;16.20;54.90
74657;DHT22;63185;45.642;13.764;2023-04-01T08:10:57;16.10;54.30
74657;DHT22;63185;45.642;13.764;2023-04-01T08:21:55;15.30;57.10
74657;DHT22;63185;45.642;13.764;2023-04-01T08:27:23;15.40;57.30
74657;DHT22;63185;45.642;13.764;2023-04-01T08:32:39;15.30;57.20
74657;DHT22;63185;45.642;13.764;2023-04-01T08:35:26;15.40;57.80
74657;DHT22;63185;45.642;13.764;2023-04-01T08:37:55;15.30;58.30
74657;DHT22;63185;45.642;13.764;2023-04-01T08:46:06;15.60;58.10
74657;DHT22;63185;45.642;13.764;2023-04-01T08:49:11;15.80;56.70
74657;DHT22;63185;45.642;13.764;2023-04-01T08:54:32;15.80;55.20
74657;DHT22;63185;45.642;13.764;2023-04-01T09:00:36;16.10;55.20
74657;DHT22;63185;45.642;13.764;2023-04-01T09:14:15;16.60;53.80
74657;DHT22;63185;45.642;13.764;2023-04-01T09:17:09;16.70;53.70
74657;DHT22;63185;45.642;13.764;2023-04-01T09:22:47;17.10;54.10
74657;DHT22;63185;45.642;13.764;2023-04-01T09:39:35;16.50;53.60
74657;DHT22;63185;45.642;13.764;2023-04-01T09:42:29;16.40;54.50
74657;DHT22;63185;45.642;13.764;2023-04-01T09:45:00;16.50;55.00
74657;DHT22;63185;45.642;13.764;2023-04-01T09:47:57;16.60;55.20
74657;DHT22;63185;45.642;13.764;2023-04-01T09:56:18;17.00;55.00
74657;DHT22;63185;45.642;13.764;2023-04-01T10:32:26;16.90;53.50
74657;DHT22;63185;45.642;13.764;2023-04-01T10:49:01;17.10;51.50
74657;DHT22;63185;45.642;13.764;2023-04-01T10:57:45;16.70;52.70
74657;DHT22;63185;45.642;13.764;2023-04-01T11:06:18;17.10;51.50
74657;DHT22;63185;45.642;13.764;2023-04-01T11:11:59;16.90;52.40
74657;DHT22;63185;45.642;13.764;2023-04-01T11:40:37;17.70;52.50
74657;DHT22;63185;45.642;13.764;2023-04-01T11:43:22;17.80;53.20
74657;DHT22;63185;45.642;13.764;2023-04-01T11:45:56;17.80;52.60
74657;DHT22;63185;45.642;13.764;2023-04-01T11:48:58;18.00;54.10
74657;DHT22;63185;45.642;13.764;2023-04-01T11:51:42;17.90;54.00
74657;DHT22;63185;45.642;13.764;2023-04-01T11:54:26;18.00;54.90
74657;DHT22;63185;45.642;13.764;2023-04-01T12:02:25;17.60;54.50
74657;DHT22;63185;45.642;13.764;2023-04-01T12:10:19;17.50;55.50
74657;DHT22;63185;45.642;13.764;2023-04-01T12:13:52;17.60;55.90
74657;DHT22;63185;45.642;13.764;2023-04-01T12:16:26;17.90;55.70
74657;DHT22;63185;45.642;13.764;2023-04-01T12:24:42;17.80;55.30
74657;DHT22;63185;45.642;13.764;2023-04-01T12:27:39;17.90;55.40
74657;DHT22;63185;45.642;13.764;2023-04-01T12:32:59;18.00;56.40
74657;DHT22;63185;45.642;13.764;2023-04-01T12:38:19;18.00;55.40
74657;DHT22;63185;45.642;13.764;2023-04-01T12:41:05;17.90;54.60
74657;DHT22;63185;45.642;13.764;2023-04-01T12:49:02;18.10;55.20
74657;DHT22;63185;45.642;13.764;2023-04-01T13:28:52;16.40;61.40
74657;DHT22;63185;45.642;13.764;2023-04-01T13:32:05;16.60;61.50
74657;DHT22;63185;45.642;13.764;2023-04-01T13:37:09;16.40;60.80
74657;DHT22;63185;45.642;13.764;2023-04-01T13:42:23;16.90;58.40
74657;DHT22;63185;45.642;13.764;2023-04-01T13:45:00;17.00;59.40
74657;DHT22;63185;45.642;13.764;2023-04-01T13:52:55;16.90;58.80
74657;DHT22;63185;45.642;13.764;2023-04-01T14:01:27;16.80;58.80
74657;DHT22;63185;45.642;13.764;2023-04-01T14:06:37;17.10;58.80
74657;DHT22;63185;45.642;13.764;2023-04-01T14:12:13;17.50;55.60
74657;DHT22;63185;45.642;13.764;2023-04-01T14:20:28;17.90;55.90
74657;DHT22;63185;45.642;13.764;2023-04-01T14:45:42;18.60;53.70
74657;DHT22;63185;45.642;13.764;2023-04-01T14:47:51;18.70;51.50
74657;DHT22;63185;45.642;13.764;2023-04-01T14:50:31;18.90;50.90
74657;DHT22;63185;45.642;13.764;2023-04-01T14:55:58;19.40;49.40
74657;DHT22;63185;45.642;13.764;2023-04-01T14:58:45;19.50;47.60
74657;DHT22;63185;45.642;13.764;2023-04-01T15:07:18;19.60;46.70
74657;DHT22;63185;45.642;13.764;2023-04-01T15:12:30;19.90;47.70
74657;DHT22;63185;45.642;13.764;2023-04-01T15:18:03;18.70;48.70
74657;DHT22;63185;45.642;13.764;2023-04-01T15:20:40;18.50;51.00
74657;DHT22;63185;45.642;13.764;2023-04-01T15:31:27;20.00;48.50
74657;DHT22;63185;45.642;13.764;2023-04-01T15:34:06;20.30;48.00
74657;DHT22;63185;45.642;13.764;2023-04-01T15:36:41;20.10;47.50
74657;DHT22;63185;45.642;13.764;2023-04-01T15:39:16;20.50;48.30
74657;DHT22;63185;45.642;13.764;2023-04-01T15:55:31;22.30;44.70
74657;DHT22;63185;45.642;13.764;2023-04-01T15:58:31;22.30;45.60
74657;DHT22;63185;45.642;13.764;2023-04-01T16:10:16;20.90;49.20
74657;DHT22;63185;45.642;13.764;2023-04-01T16:18:17;21.80;48.30
74657;DHT22;63185;45.642;13.764;2023-04-01T16:31:51;22.10;47.90
74657;DHT22;63185;45.642;13.764;2023-04-01T16:34:30;22.20;47.10
74657;DHT22;63185;45.642;13.764;2023-04-01T16:37:20;22.90;45.90
74657;DHT22;63185;45.642;13.764;2023-04-01T16:47:49;22.10;44.80
74657;DHT22;63185;45.642;13.764;2023-04-01T16:50:37;21.70;46.40
74657;DHT22;63185;45.642;13.764;2023-04-01T16:55:55;22.20;45.30
74657;DHT22;63185;45.642;13.764;2023-04-01T17:01:27;21.20;47.00
74657;DHT22;63185;45.642;13.764;2023-04-01T17:28:15;17.10;58.10
74657;DHT22;63185;45.642;13.764;2023-04-01T17:37:04;16.60;59.80
74657;DHT22;63185;45.642;13.764;2023-04-01T17:53:19;16.00;62.60
74657;DHT22;63185;45.642;13.764;2023-04-01T17:56:22;16.00;63.00
74657;DHT22;63185;45.642;13.764;2023-04-01T18:01:40;15.90;63.10
74657;DHT22;63185;45.642;13.764;2023-04-01T18:06:42;15.90;63.40
74657;DHT22;63185;45.642;13.764;2023-04-01T18:20:30;15.90;63.80
74657;DHT22;63185;45.642;13.764;2023-04-01T18:23:02;15.90;63.90
74657;DHT22;63185;45.642;13.764;2023-04-01T18:25:44;15.80;64.20
74657;DHT22;63185;45.642;13.764;2023-04-01T18:28:17;15.80;64.60
74657;DHT22;63185;45.642;13.764;2023-04-01T18:30:52;15.80;64.80
74657;DHT22;63185;45.642;13.764;2023-04-01T18:35:52;15.80;65.60
74657;DHT22;63185;45.642;13.764;2023-04-01T18:42:26;15.70;66.40
74657;DHT22;63185;45.642;13.764;2023-04-01T18:44:47;15.60;66.70
74657;DHT22;63185;45.642;13.764;2023-04-01T18:52:48;15.60;66.90
74657;DHT22;63185;45.642;13.764;2023-04-01T18:55:35;15.60;67.10
74657;DHT22;63185;45.642;13.764;2023-04-01T19:04:19;15.50;67.60
74657;DHT22;63185;45.642;13.764;2023-04-01T19:06:55;15.50;67.60
74657;DHT22;63185;45.642;13.764;2023-04-01T19:21:16;15.30;69.30
74657;DHT22;63185;45.642;13.764;2023-04-01T19:26:39;15.10;69.90
74657;DHT22;63185;45.642;13.764;2023-04-01T19:40:25;14.90;70.50
74657;DHT22;63185;45.642;13.764;2023-04-01T19:48:36;15.00;69.20
74657;DHT22;63185;45.642;13.764;2023-04-01T19:54:12;15.00;68.50
74657;DHT22;63185;45.642;13.764;2023-04-01T19:57:09;15.00;68.40
74657;DHT22;63185;45.642;13.764;2023-04-01T20:06:10;15.10;67.50
74657;DHT22;63185;45.642;13.764;2023-04-01T20:08:49;15.10;68.80
74657;DHT22;63185;45.642;13.764;2023-04-01T20:16:46;15.00;69.70
74657;DHT22;63185;45.642;13.764;2023-04-01T20:19:13;15.00;70.50
74657;DHT22;63185;45.642;13.764;2023-04-01T20:21:43;14.90;72.20
74657;DHT22;63185;45.642;13.764;2023-04-01T20:26:43;14.80;73.30
74657;DHT22;63185;45.642;13.764;2023-04-01T20:40:30;14.60;73.50
74657;DHT22;63185;45.642;13.764;2023-04-01T20:45:39;14.60;74.00
74657;DHT22;63185;45.642;13.764;2023-04-01T20:56:29;14.50;73.40
74657;DHT22;63185;45.642;13.764;2023-04-01T21:01:51;14.50;73.40
74657;DHT22;63185;45.642;13.764;2023-04-01T21:04:36;14.50;72.80
74657;DHT22;63185;45.642;13.764;2023-04-01T21:24:08;14.50;71.50
74657;DHT22;63185;45.642;13.764;2023-04-01T21:29:57;14.40;72.70
74657;DHT22;63185;45.642;13.764;2023-04-01T21:46:39;14.20;75.50
74657;DHT22;63185;45.642;13.764;2023-04-01T21:49:40;14.30;75.30
74657;DHT22;63185;45.642;13.764;2023-04-01T22:04:04;14.30;74.90
74657;DHT22;63185;45.642;13.764;2023-04-01T22:06:51;14.30;74.60
74657;DHT22;63185;45.642;13.764;2023-04-01T22:09:52;14.30;74.40
74657;DHT22;63185;45.642;13.764;2023-04-01T22:12:19;14.30;74.20
74657;DHT22;63185;45.642;13.764;2023-04-01T22:17:53;14.30;73.90
74657;DHT22;63185;45.642;13.764;2023-04-01T22:20:28;14.20;73.90
74657;DHT22;63185;45.642;13.764;2023-04-01T22:26:05;14.20;72.40
74657;DHT22;63185;45.642;13.764;2023-04-01T22:31:15;14.30;70.90
74657;DHT22;63185;45.642;13.764;2023-04-01T22:33:59;14.30;70.70
74657;DHT22;63185;45.642;13.764;2023-04-01T22:50:19;14.40;68.80
74657;DHT22;63185;45.642;13.764;2023-04-01T22:52:47;14.30;68.20
74657;DHT22;63185;45.642;13.764;2023-04-01T22:55:24;14.40;67.20
74657;DHT22;63185;45.642;13.764;2023-04-01T22:57:58;14.30;66.70
74657;DHT22;63185;45.642;13.764;2023-04-01T23:00:45;14.30;66.40
74657;DHT22;63185;45.642;13.764;2023-04-01T23:05:51;14.40;65.80
74657;DHT22;63185;45.642;13.764;2023-04-01T23:11:53;14.30;65.20
74657;DHT22;63185;45.642;13.764;2023-04-01T23:14:32;14.40;64.40
74657;DHT22;63185;45.642;13.764;2023-04-01T23:17:20;14.40;63.80
74657;DHT22;63185;45.642;13.764;2023-04-01T23:33:22;14.50;60.80
74657;DHT22;63185;45.642;13.764;2023-04-01T23:35:52;14.50;60.50
74657;DHT22;63185;45.642;13.764;2023-04-01T23:38:25;14.50;60.10
74657;DHT22;63185;45.642;13.764;2023-04-01T23:40:53;14.50;61.50
74657;DHT22;63185;45.642;13.764;2023-04-01T23:43:30;14.30;62.00
74657;DHT22;63185;45.642;13.764;2023-04-01T23:46:01;14.30;61.90
74657;DHT22;63185;45.642;13.764;2023-04-01T23:48:35;14.20;62.00
74657;DHT22;63185;45.642;13.764;2023-04-01T23:51:02;14.20;61.90
74657;DHT22;63185;45.642;13.764;2023-04-01T23:53:32;14.10;61.90
74657;DHT22;63185;45.642;13.764;2023-04-01T23:55:58;14.20;62.00
74657;DHT22;63185;45.642;13.764;2023-04-01T23:58:47;14.10;62.20
